sensor_id;sensor_type;location;lat;lon;timestamp;temperature;humidity
11093;DHT22;5600;50.864;6.102;2024-03-08T00:05:12;3.70;99.90
11093;DHT22;5600;50.864;6.102;2024-03-08T00:08:13;3.70;99.90
11093;DHT22;5600;50.864;6.102;2024-03-08T00:11:13;3.60;99.90
11093;DHT22;5600;50.864;6.102;2024-03-08T00:14:14;3.60;99.90
11093;DHT22;5600;50.864;6.102;2024-03-08T00:17:15;3.50;99.90
11093;DHT22;5600;50.864;6.102;2024-03-08T00:20:16;3.50;99.90
11093;DHT22;5600;50.864;6.102;2024-03-08T00:26:21;3.40;99.90
11093;DHT22;5600;50.864;6.102;2024-03-08T00:29:25;3.30;99.90
11093;DHT22;5600;50.864;6.102;2024-03-08T00:32:26;3.40;99.90
11093;DHT22;5600;50.864;6.102;2024-03-08T00:35:28;3.40;99.90
11093;DHT22;5600;50.864;6.102;2024-03-08T00:38:28;3.40;99.90
11093;DHT22;5600;50.864;6.102;2024-03-08T00:44:30;3.30;99.90
11093;DHT22;5600;50.864;6.102;2024-03-08T00:50:33;3.30;99.90
11093;DHT22;5600;50.864;6.102;2024-03-08T00:53:34;3.30;99.90
11093;DHT22;5600;50.864;6.102;2024-03-08T00:56:35;3.30;99.90
11093;DHT22;5600;50.864;6.102;2024-03-08T00:59:38;3.30;99.90
11093;DHT22;5600;50.864;6.102;2024-03-08T01:02:39;3.20;99.90
11093;DHT22;5600;50.864;6.102;2024-03-08T01:05:40;3.20;99.90
11093;DHT22;5600;50.864;6.102;2024-03-08T01:08:41;3.20;99.90
11093;DHT22;5600;50.864;6.102;2024-03-08T01:11:43;3.10;99.90
11093;DHT22;5600;50.864;6.102;2024-03-08T01:17:45;3.10;99.90
11093;DHT22;5600;50.864;6.102;2024-03-08T01:23:46;3.00;99.90
11093;DHT22;5600;50.864;6.102;2024-03-08T01:26:47;2.90;99.90
11093;DHT22;5600;50.864;6.102;2024-03-08T01:29:48;2.90;99.90
11093;DHT22;5600;50.864;6.102;2024-03-08T01:32:49;2.80;99.90
11093;DHT22;5600;50.864;6.102;2024-03-08T01:38:51;2.80;99.90
11093;DHT22;5600;50.864;6.102;2024-03-08T01:47:56;2.70;99.90
11093;DHT22;5600;50.864;6.102;2024-03-08T01:50:57;2.70;99.90
11093;DHT22;5600;50.864;6.102;2024-03-08T01:54:00;2.60;99.90
11093;DHT22;5600;50.864;6.102;2024-03-08T01:57:03;2.60;99.90
11093;DHT22;5600;50.864;6.102;2024-03-08T02:00:04;2.50;99.90
11093;DHT22;5600;50.864;6.102;2024-03-08T02:03:05;2.50;99.90
11093;DHT22;5600;50.864;6.102;2024-03-08T02:06:06;2.50;99.90
11093;DHT22;5600;50.864;6.102;2024-03-08T02:09:10;2.40;99.90
11093;DHT22;5600;50.864;6.102;2024-03-08T02:15:14;2.40;99.90
11093;DHT22;5600;50.864;6.102;2024-03-08T02:18:15;2.30;99.90
11093;DHT22;5600;50.864;6.102;2024-03-08T02:21:18;2.30;99.90
11093;DHT22;5600;50.864;6.102;2024-03-08T02:24:19;2.30;99.90
11093;DHT22;5600;50.864;6.102;2024-03-08T02:27:24;2.30;99.90
11093;DHT22;5600;50.864;6.102;2024-03-08T02:30:25;2.30;99.90
11093;DHT22;5600;50.864;6.102;2024-03-08T02:33:30;2.30;99.90
11093;DHT22;5600;50.864;6.102;2024-03-08T02:36:31;2.20;99.90
11093;DHT22;5600;50.864;6.102;2024-03-08T02:42:36;2.20;99.90
11093;DHT22;5600;50.864;6.102;2024-03-08T02:51:40;2.10;99.90
11093;DHT22;5600;50.864;6.102;2024-03-08T02:57:42;2.10;99.90
11093;DHT22;5600;50.864;6.102;2024-03-08T03:00:47;2.00;99.90
11093;DHT22;5600;50.864;6.102;2024-03-08T03:06:49;2.00;99.90
11093;DHT22;5600;50.864;6.102;2024-03-08T03:12:52;1.90;99.90
11093;DHT22;5600;50.864;6.102;2024-03-08T03:15:53;1.90;99.90
11093;DHT22;5600;50.864;6.102;2024-03-08T03:24:58;1.90;99.90
11093;DHT22;5600;50.864;6.102;2024-03-08T03:27:58;1.90;99.90
11093;DHT22;5600;50.864;6.102;2024-03-08T03:34:02;1.80;99.90
11093;DHT22;5600;50.864;6.102;2024-03-08T03:37:04;1.80;99.90
11093;DHT22;5600;50.864;6.102;2024-03-08T03:40:06;1.80;99.90
11093;DHT22;5600;50.864;6.102;2024-03-08T03:43:09;1.70;99.90
11093;DHT22;5600;50.864;6.102;2024-03-08T03:46:12;1.70;99.90
11093;DHT22;5600;50.864;6.102;2024-03-08T03:52:14;1.70;99.90
11093;DHT22;5600;50.864;6.102;2024-03-08T03:55:16;1.70;99.90
11093;DHT22;5600;50.864;6.102;2024-03-08T03:58:17;1.70;99.90
11093;DHT22;5600;50.864;6.102;2024-03-08T04:04:24;1.60;99.90
11093;DHT22;5600;50.864;6.102;2024-03-08T04:07:25;1.60;99.90
11093;DHT22;5600;50.864;6.102;2024-03-08T04:13:27;1.60;99.90
11093;DHT22;5600;50.864;6.102;2024-03-08T04:25:31;1.50;99.90
11093;DHT22;5600;50.864;6.102;2024-03-08T04:31:33;1.50;99.90
11093;DHT22;5600;50.864;6.102;2024-03-08T04:40:37;1.40;99.90
11093;DHT22;5600;50.864;6.102;2024-03-08T04:43:37;1.30;99.90
11093;DHT22;5600;50.864;6.102;2024-03-08T04:52:42;1.20;99.90
11093;DHT22;5600;50.864;6.102;2024-03-08T04:55:43;1.20;99.90
11093;DHT22;5600;50.864;6.102;2024-03-08T04:58:45;1.20;99.90
11093;DHT22;5600;50.864;6.102;2024-03-08T05:01:48;1.20;99.90
11093;DHT22;5600;50.864;6.102;2024-03-08T05:07:51;1.20;99.90
11093;DHT22;5600;50.864;6.102;2024-03-08T05:10:58;1.20;99.90
11093;DHT22;5600;50.864;6.102;2024-03-08T05:26:05;1.20;99.90
11093;DHT22;5600;50.864;6.102;2024-03-08T05:32:09;1.20;99.90
11093;DHT22;5600;50.864;6.102;2024-03-08T05:35:11;1.20;99.90
11093;DHT22;5600;50.864;6.102;2024-03-08T05:38:12;1.20;99.90
11093;DHT22;5600;50.864;6.102;2024-03-08T05:41:13;1.20;99.90
11093;DHT22;5600;50.864;6.102;2024-03-08T05:44:15;1.20;99.90
11093;DHT22;5600;50.864;6.102;2024-03-08T05:50:18;1.20;99.90
11093;DHT22;5600;50.864;6.102;2024-03-08T05:56:21;1.30;99.90
11093;DHT22;5600;50.864;6.102;2024-03-08T06:26:41;1.20;99.90
11093;DHT22;5600;50.864;6.102;2024-03-08T06:32:42;1.20;99.90
11093;DHT22;5600;50.864;6.102;2024-03-08T06:35:43;1.30;99.90
11093;DHT22;5600;50.864;6.102;2024-03-08T06:38:45;1.30;99.90
11093;DHT22;5600;50.864;6.102;2024-03-08T06:41:46;1.40;99.90
11093;DHT22;5600;50.864;6.102;2024-03-08T07:02:57;2.00;99.90
11093;DHT22;5600;50.864;6.102;2024-03-08T07:15:08;2.30;99.90
11093;DHT22;5600;50.864;6.102;2024-03-08T07:24:17;2.50;99.90
11093;DHT22;5600;50.864;6.102;2024-03-08T07:30:23;2.70;99.90
11093;DHT22;5600;50.864;6.102;2024-03-08T07:36:44;3.20;99.90
11093;DHT22;5600;50.864;6.102;2024-03-08T07:45:47;4.50;99.90
11093;DHT22;5600;50.864;6.102;2024-03-08T07:48:48;4.90;99.90
11093;DHT22;5600;50.864;6.102;2024-03-08T07:57:51;6.20;99.90
11093;DHT22;5600;50.864;6.102;2024-03-08T08:03:53;6.80;99.90
11093;DHT22;5600;50.864;6.102;2024-03-08T08:06:54;7.00;99.90
11093;DHT22;5600;50.864;6.102;2024-03-08T08:12:56;7.10;99.90
11093;DHT22;5600;50.864;6.102;2024-03-08T08:15:57;7.50;99.90
11093;DHT22;5600;50.864;6.102;2024-03-08T08:18:58;7.50;99.90
11093;DHT22;5600;50.864;6.102;2024-03-08T08:25:01;7.50;99.90
11093;DHT22;5600;50.864;6.102;2024-03-08T08:34:05;7.70;99.90
11093;DHT22;5600;50.864;6.102;2024-03-08T08:37:07;7.90;99.90
11093;DHT22;5600;50.864;6.102;2024-03-08T08:43:14;7.70;99.90
11093;DHT22;5600;50.864;6.102;2024-03-08T08:46:18;7.60;99.90
11093;DHT22;5600;50.864;6.102;2024-03-08T08:49:19;7.90;99.90
11093;DHT22;5600;50.864;6.102;2024-03-08T08:52:20;8.30;99.90
11093;DHT22;5600;50.864;6.102;2024-03-08T08:55:22;8.40;99.90
11093;DHT22;5600;50.864;6.102;2024-03-08T09:04:30;8.90;99.90
11093;DHT22;5600;50.864;6.102;2024-03-08T09:07:31;8.70;99.90
11093;DHT22;5600;50.864;6.102;2024-03-08T09:10:32;8.60;99.90
11093;DHT22;5600;50.864;6.102;2024-03-08T09:13:34;8.30;99.90
11093;DHT22;5600;50.864;6.102;2024-03-08T09:25:40;8.40;99.90
11093;DHT22;5600;50.864;6.102;2024-03-08T09:28:41;8.50;99.90
11093;DHT22;5600;50.864;6.102;2024-03-08T09:37:45;8.40;99.90
11093;DHT22;5600;50.864;6.102;2024-03-08T09:40:48;8.60;99.90
11093;DHT22;5600;50.864;6.102;2024-03-08T09:43:49;8.60;99.90
11093;DHT22;5600;50.864;6.102;2024-03-08T09:46:50;8.40;99.90
11093;DHT22;5600;50.864;6.102;2024-03-08T09:52:56;8.20;99.90
11093;DHT22;5600;50.864;6.102;2024-03-08T09:55:58;8.20;99.90
11093;DHT22;5600;50.864;6.102;2024-03-08T09:58:59;8.30;99.90
11093;DHT22;5600;50.864;6.102;2024-03-08T10:02:09;8.40;99.90
11093;DHT22;5600;50.864;6.102;2024-03-08T10:05:13;8.50;99.90
11093;DHT22;5600;50.864;6.102;2024-03-08T10:11:15;8.70;99.90
11093;DHT22;5600;50.864;6.102;2024-03-08T10:17:19;8.90;99.90
11093;DHT22;5600;50.864;6.102;2024-03-08T10:23:21;9.30;99.90
11093;DHT22;5600;50.864;6.102;2024-03-08T10:29:24;9.50;99.90
11093;DHT22;5600;50.864;6.102;2024-03-08T10:32:25;9.50;99.90
11093;DHT22;5600;50.864;6.102;2024-03-08T10:35:29;9.50;99.90
11093;DHT22;5600;50.864;6.102;2024-03-08T10:38:31;9.40;99.90
11093;DHT22;5600;50.864;6.102;2024-03-08T10:41:37;9.60;99.90
11093;DHT22;5600;50.864;6.102;2024-03-08T10:44:53;9.80;99.90
11093;DHT22;5600;50.864;6.102;2024-03-08T10:51:29;10.40;99.90
11093;DHT22;5600;50.864;6.102;2024-03-08T10:54:34;10.60;99.90
11093;DHT22;5600;50.864;6.102;2024-03-08T10:57:36;11.00;99.90
11093;DHT22;5600;50.864;6.102;2024-03-08T11:00:38;11.10;99.90
11093;DHT22;5600;50.864;6.102;2024-03-08T11:03:45;11.20;99.90
11093;DHT22;5600;50.864;6.102;2024-03-08T11:06:51;11.30;99.90
11093;DHT22;5600;50.864;6.102;2024-03-08T11:09:56;11.30;99.90
11093;DHT22;5600;50.864;6.102;2024-03-08T11:12:57;11.30;99.90
11093;DHT22;5600;50.864;6.102;2024-03-08T11:15:59;11.40;99.90
11093;DHT22;5600;50.864;6.102;2024-03-08T11:19:05;11.40;99.90
11093;DHT22;5600;50.864;6.102;2024-03-08T11:22:25;11.30;99.90
11093;DHT22;5600;50.864;6.102;2024-03-08T11:25:38;11.40;99.90
11093;DHT22;5600;50.864;6.102;2024-03-08T11:28:42;11.50;99.90
11093;DHT22;5600;50.864;6.102;2024-03-08T11:31:42;11.60;99.90
11093;DHT22;5600;50.864;6.102;2024-03-08T11:34:48;12.00;99.90
11093;DHT22;5600;50.864;6.102;2024-03-08T11:37:49;12.00;99.90
11093;DHT22;5600;50.864;6.102;2024-03-08T11:40:51;12.10;99.90
11093;DHT22;5600;50.864;6.102;2024-03-08T11:44:03;12.10;99.90
11093;DHT22;5600;50.864;6.102;2024-03-08T11:47:09;12.30;99.90
11093;DHT22;5600;50.864;6.102;2024-03-08T11:50:12;12.20;99.90
11093;DHT22;5600;50.864;6.102;2024-03-08T11:53:13;12.30;99.90
11093;DHT22;5600;50.864;6.102;2024-03-08T11:56:14;12.20;99.90
11093;DHT22;5600;50.864;6.102;2024-03-08T11:59:16;12.20;99.90
11093;DHT22;5600;50.864;6.102;2024-03-08T12:02:18;12.30;99.90
11093;DHT22;5600;50.864;6.102;2024-03-08T12:05:20;12.50;99.90
11093;DHT22;5600;50.864;6.102;2024-03-08T12:08:20;12.50;99.90
11093;DHT22;5600;50.864;6.102;2024-03-08T12:11:22;12.50;99.90
11093;DHT22;5600;50.864;6.102;2024-03-08T12:14:26;12.50;99.90
11093;DHT22;5600;50.864;6.102;2024-03-08T12:17:26;11.20;99.90
11093;DHT22;5600;50.864;6.102;2024-03-08T12:20:28;12.50;99.90
11093;DHT22;5600;50.864;6.102;2024-03-08T12:23:32;12.60;99.90
11093;DHT22;5600;50.864;6.102;2024-03-08T12:26:35;12.80;99.90
11093;DHT22;5600;50.864;6.102;2024-03-08T12:29:38;12.80;99.90
11093;DHT22;5600;50.864;6.102;2024-03-08T12:32:39;12.70;99.90
11093;DHT22;5600;50.864;6.102;2024-03-08T12:35:41;12.70;99.90
11093;DHT22;5600;50.864;6.102;2024-03-08T12:38:50;12.70;99.90
11093;DHT22;5600;50.864;6.102;2024-03-08T12:41:52;12.90;99.90
11093;DHT22;5600;50.864;6.102;2024-03-08T12:44:53;12.70;99.90
11093;DHT22;5600;50.864;6.102;2024-03-08T12:47:54;12.70;99.90
11093;DHT22;5600;50.864;6.102;2024-03-08T12:50:56;12.70;99.90
11093;DHT22;5600;50.864;6.102;2024-03-08T12:53:56;12.60;99.90
11093;DHT22;5600;50.864;6.102;2024-03-08T12:56:57;12.70;99.90
11093;DHT22;5600;50.864;6.102;2024-03-08T12:59:59;12.60;99.90
11093;DHT22;5600;50.864;6.102;2024-03-08T13:03:00;12.60;99.90
11093;DHT22;5600;50.864;6.102;2024-03-08T13:06:01;13.00;99.90
11093;DHT22;5600;50.864;6.102;2024-03-08T13:09:02;13.00;99.90
11093;DHT22;5600;50.864;6.102;2024-03-08T13:12:06;13.20;99.90
11093;DHT22;5600;50.864;6.102;2024-03-08T13:15:09;13.30;99.90
11093;DHT22;5600;50.864;6.102;2024-03-08T13:18:20;13.20;99.90
11093;DHT22;5600;50.864;6.102;2024-03-08T13:21:21;13.40;99.90
11093;DHT22;5600;50.864;6.102;2024-03-08T13:24:24;13.30;99.90
11093;DHT22;5600;50.864;6.102;2024-03-08T13:27:25;12.90;99.90
11093;DHT22;5600;50.864;6.102;2024-03-08T13:30:26;13.00;99.90
11093;DHT22;5600;50.864;6.102;2024-03-08T13:33:27;14.60;99.90
11093;DHT22;5600;50.864;6.102;2024-03-08T13:36:28;13.60;99.90
11093;DHT22;5600;50.864;6.102;2024-03-08T13:39:39;13.70;99.90
11093;DHT22;5600;50.864;6.102;2024-03-08T13:42:47;15.30;99.90
11093;DHT22;5600;50.864;6.102;2024-03-08T13:45:49;14.30;99.90
11093;DHT22;5600;50.864;6.102;2024-03-08T13:48:50;14.50;99.90
11093;DHT22;5600;50.864;6.102;2024-03-08T13:51:52;14.90;99.90
11093;DHT22;5600;50.864;6.102;2024-03-08T13:54:55;15.50;99.30
11093;DHT22;5600;50.864;6.102;2024-03-08T13:57:57;16.10;99.80
11093;DHT22;5600;50.864;6.102;2024-03-08T14:00:57;16.90;96.20
11093;DHT22;5600;50.864;6.102;2024-03-08T14:03:58;17.50;95.70
11093;DHT22;5600;50.864;6.102;2024-03-08T14:07:00;18.10;95.00
11093;DHT22;5600;50.864;6.102;2024-03-08T14:10:04;19.20;93.80
11093;DHT22;5600;50.864;6.102;2024-03-08T14:13:07;19.60;92.60
11093;DHT22;5600;50.864;6.102;2024-03-08T14:16:09;19.90;90.20
11093;DHT22;5600;50.864;6.102;2024-03-08T14:19:09;19.80;90.50
11093;DHT22;5600;50.864;6.102;2024-03-08T14:22:10;19.80;90.40
11093;DHT22;5600;50.864;6.102;2024-03-08T14:25:14;19.60;90.20
11093;DHT22;5600;50.864;6.102;2024-03-08T14:28:17;19.40;89.90
11093;DHT22;5600;50.864;6.102;2024-03-08T14:31:22;19.80;90.50
11093;DHT22;5600;50.864;6.102;2024-03-08T14:34:26;19.70;90.20
11093;DHT22;5600;50.864;6.102;2024-03-08T14:37:28;19.80;90.00
11093;DHT22;5600;50.864;6.102;2024-03-08T14:40:30;19.60;90.20
11093;DHT22;5600;50.864;6.102;2024-03-08T14:43:31;18.50;91.00
11093;DHT22;5600;50.864;6.102;2024-03-08T14:46:32;18.30;91.50
11093;DHT22;5600;50.864;6.102;2024-03-08T14:49:33;17.90;91.80
11093;DHT22;5600;50.864;6.102;2024-03-08T14:52:36;17.50;91.70
11093;DHT22;5600;50.864;6.102;2024-03-08T14:55:40;17.20;92.30
11093;DHT22;5600;50.864;6.102;2024-03-08T14:58:40;16.90;93.30
11093;DHT22;5600;50.864;6.102;2024-03-08T15:01:42;16.40;94.00
11093;DHT22;5600;50.864;6.102;2024-03-08T15:04:46;15.70;93.60
11093;DHT22;5600;50.864;6.102;2024-03-08T15:07:53;15.10;94.80
11093;DHT22;5600;50.864;6.102;2024-03-08T15:10:54;14.50;95.70
11093;DHT22;5600;50.864;6.102;2024-03-08T15:13:55;14.20;96.40
11093;DHT22;5600;50.864;6.102;2024-03-08T15:16:58;14.00;96.60
11093;DHT22;5600;50.864;6.102;2024-03-08T15:19:59;13.50;96.80
11093;DHT22;5600;50.864;6.102;2024-03-08T15:23:00;13.40;97.10
11093;DHT22;5600;50.864;6.102;2024-03-08T15:26:01;12.70;98.80
11093;DHT22;5600;50.864;6.102;2024-03-08T15:29:02;12.70;99.00
11093;DHT22;5600;50.864;6.102;2024-03-08T15:32:03;12.40;99.00
11093;DHT22;5600;50.864;6.102;2024-03-08T15:35:04;12.20;99.50
11093;DHT22;5600;50.864;6.102;2024-03-08T15:38:05;12.20;99.90
11093;DHT22;5600;50.864;6.102;2024-03-08T15:41:06;12.00;99.90
11093;DHT22;5600;50.864;6.102;2024-03-08T15:44:12;11.90;99.90
11093;DHT22;5600;50.864;6.102;2024-03-08T15:47:14;11.90;99.90
11093;DHT22;5600;50.864;6.102;2024-03-08T15:50:16;11.70;99.90
11093;DHT22;5600;50.864;6.102;2024-03-08T15:53:18;11.50;99.90
11093;DHT22;5600;50.864;6.102;2024-03-08T15:56:19;11.30;99.90
11093;DHT22;5600;50.864;6.102;2024-03-08T15:59:24;11.20;99.90
11093;DHT22;5600;50.864;6.102;2024-03-08T16:02:27;11.10;99.90
11093;DHT22;5600;50.864;6.102;2024-03-08T16:05:29;11.00;99.90
11093;DHT22;5600;50.864;6.102;2024-03-08T16:08:29;10.90;99.90
11093;DHT22;5600;50.864;6.102;2024-03-08T16:11:30;10.90;99.90
11093;DHT22;5600;50.864;6.102;2024-03-08T16:14:36;10.90;99.90
11093;DHT22;5600;50.864;6.102;2024-03-08T16:17:38;10.80;99.90
11093;DHT22;5600;50.864;6.102;2024-03-08T16:20:41;10.70;99.90
11093;DHT22;5600;50.864;6.102;2024-03-08T16:23:44;10.70;99.90
11093;DHT22;5600;50.864;6.102;2024-03-08T16:26:47;10.50;99.90
11093;DHT22;5600;50.864;6.102;2024-03-08T16:29:47;10.50;99.90
11093;DHT22;5600;50.864;6.102;2024-03-08T16:32:48;10.40;99.90
11093;DHT22;5600;50.864;6.102;2024-03-08T16:35:52;10.40;99.90
11093;DHT22;5600;50.864;6.102;2024-03-08T16:38:54;10.40;99.90
11093;DHT22;5600;50.864;6.102;2024-03-08T16:41:55;10.30;99.90
11093;DHT22;5600;50.864;6.102;2024-03-08T16:44:57;10.20;99.90
11093;DHT22;5600;50.864;6.102;2024-03-08T16:47:57;10.30;99.90
11093;DHT22;5600;50.864;6.102;2024-03-08T16:50:59;10.20;99.90
11093;DHT22;5600;50.864;6.102;2024-03-08T16:54:00;10.00;99.90
11093;DHT22;5600;50.864;6.102;2024-03-08T16:57:02;10.00;99.90
11093;DHT22;5600;50.864;6.102;2024-03-08T17:00:06;9.90;99.90
11093;DHT22;5600;50.864;6.102;2024-03-08T17:03:13;9.80;99.90
11093;DHT22;5600;50.864;6.102;2024-03-08T17:06:14;9.70;99.90
11093;DHT22;5600;50.864;6.102;2024-03-08T17:09:15;9.60;99.90
11093;DHT22;5600;50.864;6.102;2024-03-08T17:12:18;9.50;99.90
11093;DHT22;5600;50.864;6.102;2024-03-08T17:15:22;9.40;99.90
11093;DHT22;5600;50.864;6.102;2024-03-08T17:18:23;9.30;99.90
11093;DHT22;5600;50.864;6.102;2024-03-08T17:21:24;9.30;99.90
11093;DHT22;5600;50.864;6.102;2024-03-08T17:24:25;9.30;99.90
11093;DHT22;5600;50.864;6.102;2024-03-08T17:27:27;9.20;99.90
11093;DHT22;5600;50.864;6.102;2024-03-08T17:30:29;9.10;99.90
11093;DHT22;5600;50.864;6.102;2024-03-08T17:36:35;8.90;99.90
11093;DHT22;5600;50.864;6.102;2024-03-08T17:39:37;8.80;99.90
11093;DHT22;5600;50.864;6.102;2024-03-08T17:42:38;8.80;99.90
11093;DHT22;5600;50.864;6.102;2024-03-08T17:45:41;8.70;99.90
11093;DHT22;5600;50.864;6.102;2024-03-08T17:48:46;8.70;99.90
11093;DHT22;5600;50.864;6.102;2024-03-08T17:51:46;8.60;99.90
11093;DHT22;5600;50.864;6.102;2024-03-08T17:54:47;8.70;99.90
11093;DHT22;5600;50.864;6.102;2024-03-08T17:57:52;8.50;99.90
11093;DHT22;5600;50.864;6.102;2024-03-08T18:00:53;8.40;99.90
11093;DHT22;5600;50.864;6.102;2024-03-08T18:03:54;8.40;99.90
11093;DHT22;5600;50.864;6.102;2024-03-08T18:06:56;8.40;99.90
11093;DHT22;5600;50.864;6.102;2024-03-08T18:09:56;8.40;99.90
11093;DHT22;5600;50.864;6.102;2024-03-08T18:12:58;8.30;99.90
11093;DHT22;5600;50.864;6.102;2024-03-08T18:15:59;8.20;99.90
11093;DHT22;5600;50.864;6.102;2024-03-08T18:19:01;8.20;99.90
11093;DHT22;5600;50.864;6.102;2024-03-08T18:22:07;8.20;99.90
11093;DHT22;5600;50.864;6.102;2024-03-08T18:25:09;8.10;99.90
11093;DHT22;5600;50.864;6.102;2024-03-08T18:28:15;8.00;99.90
11093;DHT22;5600;50.864;6.102;2024-03-08T18:31:17;8.00;99.90
11093;DHT22;5600;50.864;6.102;2024-03-08T18:34:19;8.00;99.90
11093;DHT22;5600;50.864;6.102;2024-03-08T18:37:20;7.90;99.90
11093;DHT22;5600;50.864;6.102;2024-03-08T18:40:23;7.80;99.90
11093;DHT22;5600;50.864;6.102;2024-03-08T18:43:24;7.70;99.90
11093;DHT22;5600;50.864;6.102;2024-03-08T18:46:29;7.70;99.90
11093;DHT22;5600;50.864;6.102;2024-03-08T18:49:30;7.70;99.90
11093;DHT22;5600;50.864;6.102;2024-03-08T18:52:31;7.60;99.90
11093;DHT22;5600;50.864;6.102;2024-03-08T18:55:32;7.60;99.90
11093;DHT22;5600;50.864;6.102;2024-03-08T18:58:33;7.50;99.90
11093;DHT22;5600;50.864;6.102;2024-03-08T19:04:37;7.40;99.90
11093;DHT22;5600;50.864;6.102;2024-03-08T19:07:38;7.50;99.90
11093;DHT22;5600;50.864;6.102;2024-03-08T19:10:39;7.40;99.90
11093;DHT22;5600;50.864;6.102;2024-03-08T19:13:41;7.40;99.90
11093;DHT22;5600;50.864;6.102;2024-03-08T19:16:43;7.40;99.90
11093;DHT22;5600;50.864;6.102;2024-03-08T19:19:45;7.30;99.90
11093;DHT22;5600;50.864;6.102;2024-03-08T19:22:47;7.30;99.90
11093;DHT22;5600;50.864;6.102;2024-03-08T19:25:48;7.20;99.90
11093;DHT22;5600;50.864;6.102;2024-03-08T19:34:52;7.00;99.90
11093;DHT22;5600;50.864;6.102;2024-03-08T19:37:54;6.90;99.90
11093;DHT22;5600;50.864;6.102;2024-03-08T19:40:55;6.80;99.90
11093;DHT22;5600;50.864;6.102;2024-03-08T19:43:57;6.80;99.90
11093;DHT22;5600;50.864;6.102;2024-03-08T19:50:00;6.70;99.90
11093;DHT22;5600;50.864;6.102;2024-03-08T19:53:00;6.60;99.90
11093;DHT22;5600;50.864;6.102;2024-03-08T20:02:09;6.40;99.90
11093;DHT22;5600;50.864;6.102;2024-03-08T20:05:10;6.40;99.90
11093;DHT22;5600;50.864;6.102;2024-03-08T20:08:13;6.40;99.90
11093;DHT22;5600;50.864;6.102;2024-03-08T20:11:14;6.40;99.90
11093;DHT22;5600;50.864;6.102;2024-03-08T20:14:16;6.40;99.90
11093;DHT22;5600;50.864;6.102;2024-03-08T20:17:17;6.40;99.90
11093;DHT22;5600;50.864;6.102;2024-03-08T20:20:18;6.30;99.90
11093;DHT22;5600;50.864;6.102;2024-03-08T20:23:23;6.30;99.90
11093;DHT22;5600;50.864;6.102;2024-03-08T20:26:24;6.30;99.90
11093;DHT22;5600;50.864;6.102;2024-03-08T20:35:30;6.20;99.90
11093;DHT22;5600;50.864;6.102;2024-03-08T20:38:31;6.20;99.90
11093;DHT22;5600;50.864;6.102;2024-03-08T20:44:35;6.10;99.90
11093;DHT22;5600;50.864;6.102;2024-03-08T20:47:41;6.10;99.90
11093;DHT22;5600;50.864;6.102;2024-03-08T20:50:42;6.10;99.90
11093;DHT22;5600;50.864;6.102;2024-03-08T20:53:44;6.00;99.90
11093;DHT22;5600;50.864;6.102;2024-03-08T20:56:44;6.00;99.90
11093;DHT22;5600;50.864;6.102;2024-03-08T21:02:48;5.90;99.90
11093;DHT22;5600;50.864;6.102;2024-03-08T21:05:50;5.80;99.90
11093;DHT22;5600;50.864;6.102;2024-03-08T21:08:51;5.70;99.90
11093;DHT22;5600;50.864;6.102;2024-03-08T21:11:52;5.60;99.90
11093;DHT22;5600;50.864;6.102;2024-03-08T21:14:53;5.50;99.90
11093;DHT22;5600;50.864;6.102;2024-03-08T21:23:56;5.10;99.90
11093;DHT22;5600;50.864;6.102;2024-03-08T21:26:57;5.10;99.90
11093;DHT22;5600;50.864;6.102;2024-03-08T21:29:58;5.10;99.90
11093;DHT22;5600;50.864;6.102;2024-03-08T21:32:59;5.10;99.90
11093;DHT22;5600;50.864;6.102;2024-03-08T21:36:01;5.10;99.90
11093;DHT22;5600;50.864;6.102;2024-03-08T21:42:11;5.00;99.90
11093;DHT22;5600;50.864;6.102;2024-03-08T21:48:17;4.90;99.90
11093;DHT22;5600;50.864;6.102;2024-03-08T21:51:18;4.90;99.90
11093;DHT22;5600;50.864;6.102;2024-03-08T21:54:19;4.80;99.90
11093;DHT22;5600;50.864;6.102;2024-03-08T21:57:20;4.80;99.90
11093;DHT22;5600;50.864;6.102;2024-03-08T22:03:25;4.80;99.90
11093;DHT22;5600;50.864;6.102;2024-03-08T22:06:31;4.80;99.90
11093;DHT22;5600;50.864;6.102;2024-03-08T22:09:32;4.70;99.90
11093;DHT22;5600;50.864;6.102;2024-03-08T22:12:33;4.70;99.90
11093;DHT22;5600;50.864;6.102;2024-03-08T22:15:34;4.70;99.90
11093;DHT22;5600;50.864;6.102;2024-03-08T22:18:35;4.70;99.90
11093;DHT22;5600;50.864;6.102;2024-03-08T22:21:37;4.70;99.90
11093;DHT22;5600;50.864;6.102;2024-03-08T22:24:38;4.80;99.90
11093;DHT22;5600;50.864;6.102;2024-03-08T22:27:41;4.80;99.90
11093;DHT22;5600;50.864;6.102;2024-03-08T22:30:42;4.80;99.90
11093;DHT22;5600;50.864;6.102;2024-03-08T22:33:43;4.80;99.90
11093;DHT22;5600;50.864;6.102;2024-03-08T22:39:45;4.70;99.90
11093;DHT22;5600;50.864;6.102;2024-03-08T22:42:48;4.70;99.90
11093;DHT22;5600;50.864;6.102;2024-03-08T22:48:52;4.60;99.90
11093;DHT22;5600;50.864;6.102;2024-03-08T22:51:54;4.50;99.90
11093;DHT22;5600;50.864;6.102;2024-03-08T22:54:54;4.50;99.90
11093;DHT22;5600;50.864;6.102;2024-03-08T22:57:55;4.40;99.90
11093;DHT22;5600;50.864;6.102;2024-03-08T23:00:56;4.30;99.90
11093;DHT22;5600;50.864;6.102;2024-03-08T23:06:59;4.00;99.90
11093;DHT22;5600;50.864;6.102;2024-03-08T23:16:05;3.80;99.90
11093;DHT22;5600;50.864;6.102;2024-03-08T23:19:08;3.80;99.90
11093;DHT22;5600;50.864;6.102;2024-03-08T23:22:08;3.80;99.90
11093;DHT22;5600;50.864;6.102;2024-03-08T23:25:09;3.90;99.90
11093;DHT22;5600;50.864;6.102;2024-03-08T23:28:12;3.90;99.90
11093;DHT22;5600;50.864;6.102;2024-03-08T23:31:13;3.90;99.90
11093;DHT22;5600;50.864;6.102;2024-03-08T23:34:15;3.90;99.90
11093;DHT22;5600;50.864;6.102;2024-03-08T23:37:15;4.00;99.90
11093;DHT22;5600;50.864;6.102;2024-03-08T23:40:17;4.00;99.90
11093;DHT22;5600;50.864;6.102;2024-03-08T23:43:21;4.10;99.90
11093;DHT22;5600;50.864;6.102;2024-03-08T23:49:24;4.30;99.90
11093;DHT22;5600;50.864;6.102;2024-03-08T23:52:25;4.40;99.90
11093;DHT22;5600;50.864;6.102;2024-03-08T23:55:28;4.50;99.90
11093;DHT22;5600;50.864;6.102;2024-03-08T23:58:29;4.60;99.90
